Time;durP1;ratioP1;P1;durP2;ratioP2;P2;SDS_P1;SDS_P2;PMS_P1;PMS_P2;Temp;Humidity;BMP_temperature;BMP_pressure;BME280_temperature;BME280_humidity;BME280_pressure;Samples;Min_cycle;Max_cycle;Signal;HPM_P1;HPM_P2
2023/12/28 00:01:01;;;;;;;1.00;1.00;;;;;;;10.39;83.28;101329.22;5087843;28;20213;-82
2023/12/28 00:03:27;;;;;;;0.80;0.80;;;;;;;10.35;83.48;101333.41;5092671;28;21078;-80
2023/12/28 00:05:56;;;;;;;0.80;0.80;;;;;;;10.42;83.26;101329.31;5101160;28;20677;-80
2023/12/28 00:08:22;;;;;;;7.38;1.20;;;;;;;10.40;82.97;101342.25;5103591;28;20205;-80
2023/12/28 00:10:49;;;;;;;1.50;1.50;;;;;;;10.39;83.06;101335.28;5105745;28;20201;-82
2023/12/28 00:13:16;;;;;;;1.13;1.13;;;;;;;10.23;83.57;101332.09;5095470;28;20206;-82
2023/12/28 00:15:43;;;;;;;0.90;0.90;;;;;;;9.99;84.30;101287.13;5105158;28;20204;-82
2023/12/28 00:18:10;;;;;;;1.27;1.27;;;;;;;10.24;83.95;101332.13;5103025;28;20206;-81
2023/12/28 00:20:36;;;;;;;1.00;1.00;;;;;;;10.19;84.12;101331.09;5099814;28;20202;-81
2023/12/28 00:23:06;;;;;;;1.40;1.35;;;;;;;10.21;84.38;101329.44;5110880;28;20228;-81
2023/12/28 00:25:33;;;;;;;4.95;1.50;;;;;;;10.10;84.96;101335.88;5106943;28;20190;-81
2023/12/28 00:27:59;;;;;;;1.00;1.00;;;;;;;9.99;85.70;101344.13;5108219;28;20204;-81
2023/12/28 00:30:26;;;;;;;0.82;0.82;;;;;;;10.00;86.02;101344.16;5104472;28;20202;-81
2023/12/28 00:32:53;;;;;;;0.93;0.93;;;;;;;10.01;86.22;101345.94;5099769;28;20198;-80
2023/12/28 00:35:20;;;;;;;1.10;1.10;;;;;;;9.84;86.12;101318.50;5097154;28;20229;-83
2023/12/28 00:37:49;;;;;;;1.00;1.00;;;;;;;9.82;86.62;101328.81;5093745;28;20202;-83
2023/12/28 00:40:17;;;;;;;0.70;0.70;;;;;;;9.89;87.13;101341.16;5088766;28;20697;-84
2023/12/28 00:42:44;;;;;;;2.75;1.63;;;;;;;9.85;87.91;101359.13;5094164;28;20229;-84
2023/12/28 00:45:11;;;;;;;1.00;1.00;;;;;;;9.75;88.77;101367.34;5091864;28;20210;-82
2023/12/28 00:47:37;;;;;;;1.23;1.23;;;;;;;9.64;89.35;101368.66;5094460;28;20190;-83
2023/12/28 00:50:05;;;;;;;0.80;0.80;;;;;;;9.52;90.59;101366.47;5093916;28;20209;-83
2023/12/28 00:52:31;;;;;;;1.90;1.80;;;;;;;9.29;91.75;101350.03;5098566;28;20210;-80
2023/12/28 00:54:58;;;;;;;0.80;0.80;;;;;;;9.34;92.65;101366.63;5114898;28;20231;-79
2023/12/28 00:57:26;;;;;;;1.10;1.10;;;;;;;8.44;92.92;101212.03;5114621;28;20206;-79
2023/12/28 00:59:53;;;;;;;0.70;0.70;;;;;;;9.21;93.59;101354.00;5106962;28;20202;-83
2023/12/28 01:02:20;;;;;;;0.80;0.80;;;;;;;9.14;94.32;101364.03;5113782;28;20265;-78
2023/12/28 01:04:47;;;;;;;1.35;1.35;;;;;;;9.10;94.94;101365.59;5112558;28;20994;-82
2023/12/28 01:07:13;;;;;;;1.13;1.13;;;;;;;9.10;95.14;101365.59;5112598;28;20240;-77
2023/12/28 01:09:40;;;;;;;0.90;0.90;;;;;;;8.89;94.49;101310.41;5107101;28;20194;-81
2023/12/28 01:12:07;;;;;;;0.90;0.90;;;;;;;9.18;93.75;101340.94;5105528;28;20202;-81
2023/12/28 01:14:35;;;;;;;0.80;0.80;;;;;;;9.42;93.30;101360.03;5104286;28;20279;-81
2023/12/28 01:17:02;;;;;;;0.90;0.90;;;;;;;9.30;93.64;101363.84;5071451;28;20198;-81
2023/12/28 01:19:29;;;;;;;0.90;0.90;;;;;;;9.04;94.83;101331.72;5099852;28;20202;-81
2023/12/28 01:21:56;;;;;;;1.55;1.55;;;;;;;9.15;94.88;101353.75;5100136;28;20206;-81
2023/12/28 01:24:24;;;;;;;1.33;1.33;;;;;;;9.22;94.52;101350.59;5098005;28;20233;-81
2023/12/28 01:26:51;;;;;;;2.38;1.30;;;;;;;9.36;93.67;101352.03;5100307;28;20197;-78
2023/12/28 01:29:17;;;;;;;1.23;1.17;;;;;;;9.25;94.29;101347.22;5100401;28;20202;-80
2023/12/28 01:31:45;;;;;;;0.80;0.80;;;;;;;8.98;94.99;101315.97;5106278;28;20202;-82
2023/12/28 01:34:12;;;;;;;0.90;0.90;;;;;;;9.13;95.63;101326.91;5107136;28;20233;-82
2023/12/28 01:36:41;;;;;;;0.90;0.90;;;;;;;9.28;94.68;101332.72;5098557;28;20214;-82
2023/12/28 01:39:10;;;;;;;1.02;1.02;;;;;;;9.34;93.89;101325.22;5091629;28;20257;-82
2023/12/28 01:41:37;;;;;;;0.80;0.80;;;;;;;9.32;93.45;101308.72;5101572;28;20292;-80
2023/12/28 01:44:04;;;;;;;1.20;1.20;;;;;;;9.30;93.73;101310.38;5109992;28;20225;-80
2023/12/28 01:46:31;;;;;;;0.80;0.80;;;;;;;9.21;94.73;101309.13;5095301;28;20201;-80
2023/12/28 01:48:59;;;;;;;1.02;1.02;;;;;;;9.17;94.86;101296.88;5101543;28;20254;-82
2023/12/28 01:51:26;;;;;;;1.77;1.77;;;;;;;9.29;94.52;101302.53;5098104;28;20238;-80
2023/12/28 01:53:54;;;;;;;7.63;2.70;;;;;;;9.34;96.21;101301.91;5096678;28;20213;-82
2023/12/28 01:56:21;;;;;;;0.90;0.90;;;;;;;9.24;94.52;101310.13;5098361;28;20229;-82
2023/12/28 01:58:50;;;;;;;0.80;0.80;;;;;;;9.22;94.94;101313.47;5103416;28;20205;-78
2023/12/28 02:01:18;;;;;;;1.17;1.17;;;;;;;9.04;95.34;101290.34;5100019;28;20199;-83
2023/12/28 02:03:45;;;;;;;0.88;0.88;;;;;;;9.01;95.74;101300.56;5102966;28;20226;-81
2023/12/28 02:06:16;;;;;;;0.80;0.80;;;;;;;8.73;95.76;101252.00;5101732;28;20206;-83
2023/12/28 02:08:43;;;;;;;0.90;0.90;;;;;;;9.02;96.27;101312.69;5099611;28;20198;-81
2023/12/28 02:11:10;;;;;;;0.80;0.80;;;;;;;9.03;96.05;101306.66;5105979;28;20619;-81
2023/12/28 02:13:37;;;;;;;0.90;0.90;;;;;;;8.96;95.99;101308.13;5106094;28;20194;-82
2023/12/28 02:16:11;;;;;;;1.40;1.40;;;;;;;8.94;96.08;101298.56;5046858;28;20281;-80
2023/12/28 02:18:42;;;;;;;1.00;1.00;;;;;;;8.94;96.68;101293.38;5092032;28;20689;-80
2023/12/28 02:21:10;;;;;;;1.15;1.15;;;;;;;8.89;96.66;101297.47;5093757;28;20569;-80
2023/12/28 02:23:38;;;;;;;1.02;1.02;;;;;;;8.81;96.35;101276.47;5098873;28;20213;-80
2023/12/28 02:26:06;;;;;;;1.00;1.00;;;;;;;8.72;96.84;101260.59;5099374;28;20227;-79
2023/12/28 02:28:33;;;;;;;0.98;0.98;;;;;;;8.84;96.76;101286.06;5092418;28;20243;-81
2023/12/28 02:31:02;;;;;;;1.58;1.38;;;;;;;8.80;97.22;101289.34;5091721;28;20228;-81
2023/12/28 02:33:35;;;;;;;0.70;0.70;;;;;;;8.70;97.93;101274.28;5095576;28;20190;-80
2023/12/28 02:36:04;;;;;;;1.02;1.02;;;;;;;8.74;98.49;101299.44;5092802;28;20209;-79
2023/12/28 02:38:33;;;;;;;0.80;0.80;;;;;;;8.75;98.46;101307.25;5090369;28;20199;-80
2023/12/28 02:41:01;;;;;;;1.50;1.50;;;;;;;8.64;98.80;101287.81;5089450;28;20209;-80
2023/12/28 02:43:30;;;;;;;0.98;0.98;;;;;;;8.69;98.52;101304.41;5095342;28;20645;-81
2023/12/28 02:45:57;;;;;;;1.20;1.20;;;;;;;8.62;99.23;101311.84;5099936;28;20194;-82
2023/12/28 02:48:23;;;;;;;1.00;1.00;;;;;;;8.62;99.48;101315.31;5099137;28;20244;-81
2023/12/28 02:50:50;;;;;;;2.20;1.40;;;;;;;8.60;99.79;101316.03;5098375;28;20643;-82
2023/12/28 02:53:17;;;;;;;1.10;1.10;;;;;;;8.56;100.00;101314.19;5097060;28;20202;-80
2023/12/28 02:55:44;;;;;;;1.00;1.00;;;;;;;8.56;100.00;101311.59;5095097;28;20194;-82
2023/12/28 02:58:10;;;;;;;1.00;1.00;;;;;;;8.37;100.00;101286.66;5103044;28;20210;-82
2023/12/28 03:00:39;;;;;;;0.80;0.80;;;;;;;8.53;100.00;101319.19;5100914;28;20198;-81
2023/12/28 03:03:05;;;;;;;1.08;1.08;;;;;;;8.46;100.00;101318.94;5104439;28;20217;-79
2023/12/28 03:05:32;;;;;;;0.90;0.90;;;;;;;8.27;100.00;101294.78;5103053;28;20197;-81
2023/12/28 03:07:59;;;;;;;0.90;0.90;;;;;;;8.38;100.00;101320.28;5106618;28;20206;-83
2023/12/28 03:10:26;;;;;;;0.88;0.88;;;;;;;8.25;100.00;101297.31;5110398;28;20198;-82
2023/12/28 03:12:53;;;;;;;0.98;0.98;;;;;;;8.35;100.00;101309.81;5106468;28;20207;-80
2023/12/28 03:15:19;;;;;;;1.15;1.15;;;;;;;8.40;100.00;101318.69;5106927;28;20207;-82
2023/12/28 03:17:48;;;;;;;1.45;1.17;;;;;;;8.24;100.00;101285.19;5092899;28;20207;-84
2023/12/28 03:20:16;;;;;;;0.98;0.98;;;;;;;8.42;100.00;101322.19;5087393;28;20568;-85
2023/12/28 03:22:43;;;;;;;0.98;0.98;;;;;;;8.36;100.00;101306.44;5093533;28;20217;-83
2023/12/28 03:25:09;;;;;;;1.10;1.10;;;;;;;8.05;100.00;101267.13;5058577;28;20237;-84
2023/12/28 03:27:36;;;;;;;1.10;1.10;;;;;;;8.38;100.00;101309.09;5090094;28;20214;-80
2023/12/28 03:30:03;;;;;;;1.50;1.40;;;;;;;8.51;100.00;101305.31;5046860;28;20203;-80
2023/12/28 03:32:30;;;;;;;1.00;1.00;;;;;;;8.49;100.00;101304.41;5098531;28;20186;-81
2023/12/28 03:34:58;;;;;;;1.30;1.17;;;;;;;8.41;100.00;101311.81;5098159;28;20327;-82
2023/12/28 03:37:25;;;;;;;1.63;1.52;;;;;;;8.05;100.00;101308.47;5100998;28;20740;-81
2023/12/28 03:39:52;;;;;;;1.67;1.58;;;;;;;7.71;100.00;101342.19;5098713;28;20541;-82
2023/12/28 03:42:18;;;;;;;0.90;0.90;;;;;;;7.69;100.00;101328.34;5070547;28;20681;-80
2023/12/28 03:44:45;;;;;;;0.80;0.80;;;;;;;7.64;100.00;101328.91;5051113;28;20225;-82
2023/12/28 03:47:12;;;;;;;2.50;2.23;;;;;;;7.51;100.00;101319.72;5104644;28;20883;-78
2023/12/28 03:49:40;;;;;;;1.30;1.30;;;;;;;7.52;100.00;101312.88;5106141;28;20190;-80
2023/12/28 03:52:08;;;;;;;1.03;1.03;;;;;;;7.36;100.00;101309.56;5106494;28;20209;-81
2023/12/28 03:54:35;;;;;;;0.93;0.93;;;;;;;7.13;100.00;101298.97;5097363;28;20190;-80
2023/12/28 03:57:02;;;;;;;1.40;1.40;;;;;;;6.96;100.00;101296.44;5095613;28;20209;-82
2023/12/28 03:59:28;;;;;;;1.67;1.57;;;;;;;6.69;100.00;101258.13;5089772;28;20213;-82
2023/12/28 04:01:55;;;;;;;1.47;1.47;;;;;;;6.87;100.00;101313.16;5098193;28;20198;-79
2023/12/28 04:04:22;;;;;;;3.40;3.10;;;;;;;6.85;100.00;101315.66;5090637;28;20221;-81
2023/12/28 04:06:48;;;;;;;1.17;1.17;;;;;;;6.88;100.00;101314.94;5095053;28;20193;-83
2023/12/28 04:09:17;;;;;;;1.10;1.10;;;;;;;6.93;100.00;101303.16;5102104;28;20670;-79
2023/12/28 04:11:44;;;;;;;1.37;1.37;;;;;;;6.95;100.00;101311.88;5096510;28;20221;-83
2023/12/28 04:14:11;;;;;;;1.57;1.57;;;;;;;6.42;100.00;101208.72;5095267;28;20707;-80
2023/12/28 04:16:37;;;;;;;1.00;1.00;;;;;;;6.95;100.00;101311.88;5091066;28;20197;-83
2023/12/28 04:19:04;;;;;;;1.37;1.37;;;;;;;6.86;100.00;101288.19;5085716;28;20212;-82
2023/12/28 04:21:31;;;;;;;2.37;2.20;;;;;;;6.96;100.00;101313.59;5056192;28;20209;-80
2023/12/28 04:23:58;;;;;;;3.97;1.57;;;;;;;6.99;100.00;101321.53;5097597;28;20595;-82
2023/12/28 04:26:26;;;;;;;1.47;1.47;;;;;;;6.89;100.00;101309.84;5096519;28;20228;-81
2023/12/28 04:28:52;;;;;;;3.17;2.67;;;;;;;6.86;100.00;101324.28;5106140;28;20228;-77
2023/12/28 04:31:19;;;;;;;1.00;1.00;;;;;;;6.87;100.00;101319.22;5105037;28;20198;-81
2023/12/28 04:33:46;;;;;;;1.03;1.03;;;;;;;6.80;100.00;101321.41;5101748;28;20233;-81
2023/12/28 04:36:13;;;;;;;1.00;1.00;;;;;;;6.78;100.00;101312.69;5102717;28;20197;-79
2023/12/28 04:38:39;;;;;;;1.87;1.77;;;;;;;6.75;100.00;101309.97;5107001;28;20682;-80
2023/12/28 04:41:06;;;;;;;1.57;1.57;;;;;;;6.77;100.00;101300.66;5101828;28;20202;-76
2023/12/28 04:43:34;;;;;;;1.10;1.10;;;;;;;6.85;100.00;101301.88;5113231;28;20236;-81
2023/12/28 04:46:04;;;;;;;1.17;1.17;;;;;;;6.86;100.00;101306.25;5058287;28;20209;-77
2023/12/28 04:48:31;;;;;;;1.10;1.10;;;;;;;6.83;100.00;101306.97;5099524;28;20198;-80
2023/12/28 04:50:58;;;;;;;1.40;1.40;;;;;;;6.82;100.00;101304.31;5096542;28;20205;-81
2023/12/28 04:53:25;;;;;;;0.90;0.90;;;;;;;6.71;100.00;101278.00;5100538;28;20198;-83
2023/12/28 04:55:51;;;;;;;1.23;1.23;;;;;;;6.83;100.00;101312.13;5117504;28;20193;-82
2023/12/28 04:58:18;;;;;;;1.10;1.10;;;;;;;6.86;100.00;101320.00;5102358;28;20199;-81
2023/12/28 05:00:46;;;;;;;1.87;1.83;;;;;;;6.93;100.00;101316.03;5099180;28;20198;-83
2023/12/28 05:03:13;;;;;;;1.97;1.90;;;;;;;6.86;100.00;101316.56;5104505;28;20943;-83
2023/12/28 05:05:40;;;;;;;2.23;2.13;;;;;;;6.44;100.00;101264.66;5100014;28;20238;-81
2023/12/28 05:08:07;;;;;;;2.27;2.20;;;;;;;6.69;100.00;101301.94;5093030;28;20194;-78
2023/12/28 05:10:34;;;;;;;1.98;1.88;;;;;;;6.75;100.00;101297.97;5093979;28;20448;-79
2023/12/28 05:13:00;;;;;;;5.13;2.90;;;;;;;6.73;100.00;101288.41;5093852;28;20213;-79
2023/12/28 05:15:27;;;;;;;1.50;1.50;;;;;;;6.65;100.00;101271.66;5091612;28;20675;-75
2023/12/28 05:17:55;;;;;;;1.40;1.40;;;;;;;6.80;100.00;101293.94;5092125;28;20223;-79
2023/12/28 05:20:22;;;;;;;1.10;1.10;;;;;;;6.83;100.00;101303.50;5086625;28;20671;-77
2023/12/28 05:22:49;;;;;;;1.00;1.00;;;;;;;6.56;100.00;101269.53;5095437;28;20561;-78
2023/12/28 05:25:17;;;;;;;2.13;2.13;;;;;;;6.21;100.00;101207.63;5093518;28;20728;-77
2023/12/28 05:27:43;;;;;;;2.13;2.03;;;;;;;6.76;100.00;101304.03;5092712;28;20697;-76
2023/12/28 05:30:11;;;;;;;1.20;1.20;;;;;;;6.21;100.00;101205.94;5092384;28;20574;-76
2023/12/28 05:32:38;;;;;;;1.43;1.43;;;;;;;6.82;100.00;101309.47;5092435;28;20206;-78
2023/12/28 05:35:07;;;;;;;1.83;1.73;;;;;;;6.89;100.00;101311.53;5092381;28;20320;-78
2023/12/28 05:37:34;;;;;;;2.07;1.97;;;;;;;6.79;100.00;101301.59;5092875;28;20202;-76
2023/12/28 05:40:01;;;;;;;2.73;1.23;;;;;;;6.63;100.00;101302.53;5087141;28;20630;-77
2023/12/28 05:42:28;;;;;;;1.60;1.60;;;;;;;6.57;100.00;101298.75;5092949;28;20207;-78
2023/12/28 05:44:54;;;;;;;1.23;1.23;;;;;;;6.34;100.00;101295.91;5093340;28;20218;-77
2023/12/28 05:47:21;;;;;;;2.90;2.80;;;;;;;6.25;100.00;101276.50;5095974;28;20194;-78
2023/12/28 05:49:48;;;;;;;2.17;1.97;;;;;;;6.32;100.00;101299.19;5096413;28;20194;-76
2023/12/28 05:52:19;;;;;;;1.00;1.00;;;;;;;6.29;100.00;101302.50;5095446;28;20217;-77
2023/12/28 05:54:47;;;;;;;1.87;1.77;;;;;;;6.21;100.00;101306.38;5099294;28;20318;-79
2023/12/28 05:57:14;;;;;;;1.67;1.67;;;;;;;6.13;100.00;101305.09;5092193;28;20237;-76
2023/12/28 05:59:41;;;;;;;2.80;2.60;;;;;;;6.27;100.00;101313.53;5088783;28;20198;-78
2023/12/28 06:02:08;;;;;;;6.33;2.37;;;;;;;6.07;100.00;101270.41;5091943;28;20615;-77
2023/12/28 06:04:35;;;;;;;4.50;2.90;;;;;;;6.31;100.00;101305.16;5091873;28;20214;-80
2023/12/28 06:07:03;;;;;;;3.27;3.07;;;;;;;6.26;100.00;101299.78;5092278;28;20584;-79
2023/12/28 06:09:31;;;;;;;5.63;5.23;;;;;;;6.96;100.00;101290.41;5092237;28;20693;-75
2023/12/28 06:11:58;;;;;;;4.30;3.17;;;;;;;6.49;100.00;101257.16;5096458;28;20259;-79
2023/12/28 06:14:25;;;;;;;3.87;3.63;;;;;;;6.76;100.00;101293.72;5091893;28;20710;-72
2023/12/28 06:16:51;;;;;;;1.50;1.50;;;;;;;6.73;100.00;101302.19;5092533;28;20197;-78
2023/12/28 06:19:18;;;;;;;2.27;2.07;;;;;;;6.58;100.00;101273.06;5086305;28;20210;-79
2023/12/28 06:21:45;;;;;;;1.97;1.97;;;;;;;7.31;100.00;101292.97;5093740;28;20202;-77
2023/12/28 06:24:12;;;;;;;1.40;1.37;;;;;;;7.09;100.00;101299.63;5090051;28;20206;-76
2023/12/28 06:26:42;;;;;;;3.50;2.83;;;;;;;6.95;100.00;101311.88;5091210;28;20213;-75
2023/12/28 06:29:09;;;;;;;1.63;1.63;;;;;;;6.80;100.00;101311.09;5091669;28;20294;-76
2023/12/28 06:31:36;;;;;;;2.20;1.50;;;;;;;6.63;100.00;101297.38;5109752;28;20237;-76
2023/12/28 06:34:03;;;;;;;2.90;2.70;;;;;;;6.55;100.00;101302.94;5090964;28;20261;-78
2023/12/28 06:36:30;;;;;;;2.10;1.60;;;;;;;6.54;100.00;101301.16;5091577;28;20199;-77
2023/12/28 06:38:57;;;;;;;2.03;1.93;;;;;;;6.56;100.00;101309.88;5088595;28;20233;-76
2023/12/28 06:41:24;;;;;;;1.57;1.57;;;;;;;6.44;100.00;101289.53;5090574;28;20194;-77
2023/12/28 06:43:52;;;;;;;1.60;1.60;;;;;;;6.60;100.00;101301.50;5091398;28;20637;-76
2023/12/28 06:46:20;;;;;;;2.93;2.77;;;;;;;6.53;100.00;101283.97;5087628;28;20230;-77
2023/12/28 06:48:47;;;;;;;3.30;2.87;;;;;;;6.71;100.00;101305.47;5038926;28;20703;-77
2023/12/28 06:51:18;;;;;;;1.60;1.60;;;;;;;6.75;100.00;101299.66;5087734;28;20285;-77
2023/12/28 06:53:45;;;;;;;1.57;1.57;;;;;;;6.44;100.00;101256.94;5089896;28;20281;-77
2023/12/28 06:56:11;;;;;;;1.77;1.77;;;;;;;6.48;100.00;101274.31;5089823;28;20224;-77
2023/12/28 06:58:38;;;;;;;3.07;2.53;;;;;;;6.81;100.00;101311.16;5089278;28;20205;-77
2023/12/28 07:01:07;;;;;;;3.10;2.90;;;;;;;6.87;100.00;101308.91;5083754;28;20213;-79
2023/12/28 07:03:33;;;;;;;2.80;2.70;;;;;;;6.82;100.00;101312.94;5089501;28;20200;-80
2023/12/28 07:06:00;;;;;;;2.67;2.57;;;;;;;6.62;100.00;101281.84;5088692;28;20296;-76
2023/12/28 07:08:27;;;;;;;1.40;1.40;;;;;;;6.66;100.00;101286.34;5090439;28;20654;-79
2023/12/28 07:10:54;;;;;;;1.67;1.53;;;;;;;6.64;100.00;101293.09;5091430;28;20198;-81
2023/12/28 07:13:21;;;;;;;2.80;2.70;;;;;;;6.32;100.00;101274.31;5088559;28;20202;-78
2023/12/28 07:15:47;;;;;;;3.97;3.67;;;;;;;6.67;100.00;101325.06;5091560;28;20194;-80
2023/12/28 07:18:16;;;;;;;1.70;1.67;;;;;;;6.83;100.00;101322.44;5090325;28;20198;-78
2023/12/28 07:20:43;;;;;;;2.60;1.77;;;;;;;6.82;100.00;101322.34;5047514;28;20198;-78
2023/12/28 07:23:10;;;;;;;1.33;1.33;;;;;;;6.82;100.00;101324.94;5089875;28;20639;-78
2023/12/28 07:25:36;;;;;;;1.23;1.23;;;;;;;6.83;100.00;101326.72;5087433;28;20226;-78
2023/12/28 07:28:04;;;;;;;1.33;1.33;;;;;;;6.98;100.00;101323.22;5089616;28;20209;-71
2023/12/28 07:30:31;;;;;;;1.27;1.27;;;;;;;6.72;100.00;101299.50;5084230;28;20639;-70
2023/12/28 07:32:58;;;;;;;2.07;1.97;;;;;;;6.79;100.00;101335.09;5088298;28;20625;-71
2023/12/28 07:35:26;;;;;;;3.00;2.80;;;;;;;6.73;100.00;101334.81;5083792;28;20265;-71
2023/12/28 07:37:54;;;;;;;3.43;1.47;;;;;;;6.67;100.00;101309.59;5082286;28;20205;-76
2023/12/28 07:40:21;;;;;;;1.53;1.53;;;;;;;6.67;100.00;101334.50;5047586;28;20211;-74
2023/12/28 07:42:48;;;;;;;3.37;2.17;;;;;;;6.62;100.00;101346.25;5085943;28;20263;-73
2023/12/28 07:45:15;;;;;;;1.20;1.20;;;;;;;6.70;100.00;101347.53;5075997;28;20222;-72
2023/12/28 07:47:41;;;;;;;1.00;1.00;;;;;;;6.76;100.00;101314.31;5090795;28;20205;-75
2023/12/28 07:50:10;;;;;;;1.10;1.10;;;;;;;6.81;100.00;101302.56;5038162;28;20198;-78
2023/12/28 07:52:38;;;;;;;1.27;1.27;;;;;;;7.17;100.00;101335.28;5055329;28;20593;-75
2023/12/28 07:55:06;;;;;;;0.90;0.90;;;;;;;7.28;100.00;101328.94;5081716;28;20209;-76
2023/12/28 07:57:34;;;;;;;1.53;1.53;;;;;;;7.12;100.00;101295.50;5082598;28;20199;-74
2023/12/28 08:00:00;;;;;;;2.60;2.00;;;;;;;7.28;100.00;101333.22;5067070;28;20197;-74
2023/12/28 08:02:28;;;;;;;1.00;1.00;;;;;;;7.30;100.00;101335.09;5085416;28;20252;-72
2023/12/28 08:04:54;;;;;;;3.90;1.83;;;;;;;7.40;100.00;101323.50;5087786;28;20733;-81
2023/12/28 08:07:21;;;;;;;1.13;1.13;;;;;;;8.31;100.00;101309.66;5085776;28;20684;-76
2023/12/28 08:09:49;;;;;;;1.00;1.00;;;;;;;8.24;100.00;101325.66;5077126;28;20285;-72
2023/12/28 08:12:16;;;;;;;3.60;1.35;;;;;;;8.08;100.00;101344.75;5086003;28;20732;-77
2023/12/28 08:14:43;;;;;;;2.20;1.63;;;;;;;7.87;100.00;101344.69;5083513;28;20190;-78
2023/12/28 08:17:10;;;;;;;2.13;2.03;;;;;;;7.90;100.00;101323.25;5058063;28;20597;-79
2023/12/28 08:19:37;;;;;;;2.30;2.10;;;;;;;7.74;100.00;101362.13;5087680;28;20202;-78
2023/12/28 08:22:04;;;;;;;1.83;1.73;;;;;;;7.64;100.00;101359.88;5077430;28;20214;-77
2023/12/28 08:24:32;;;;;;;1.10;1.10;;;;;;;7.42;100.00;101356.28;5082356;28;20206;-76
2023/12/28 08:27:00;;;;;;;1.00;1.00;;;;;;;7.53;100.00;101361.09;5077856;28;20233;-77
2023/12/28 08:29:27;;;;;;;1.00;1.00;;;;;;;6.93;100.00;101288.56;5086239;28;20202;-79
2023/12/28 08:31:55;;;;;;;1.10;1.10;;;;;;;7.30;100.00;101352.25;5090589;28;20201;-81
2023/12/28 08:34:22;;;;;;;1.50;1.50;;;;;;;7.53;100.00;101355.94;5087697;28;20674;-82
2023/12/28 08:36:49;;;;;;;1.40;1.38;;;;;;;7.69;100.00;101342.94;5074625;28;20210;-79
2023/12/28 08:39:15;;;;;;;2.07;1.67;;;;;;;7.84;100.00;101333.31;5074376;28;21292;-76
2023/12/28 08:41:42;;;;;;;1.63;1.53;;;;;;;7.76;100.00;101306.25;5083201;28;20198;-80
2023/12/28 08:44:10;;;;;;;7.30;5.27;;;;;;;7.94;100.00;101346.72;5087250;28;20239;-77
2023/12/28 08:46:37;;;;;;;2.05;2.05;;;;;;;7.89;100.00;101321.47;5089869;28;20229;-76
2023/12/28 08:49:04;;;;;;;5.35;2.28;;;;;;;7.83;100.00;101332.44;5077626;28;20214;-78
2023/12/28 08:51:30;;;;;;;1.43;1.43;;;;;;;7.29;100.00;101236.97;5085123;28;20205;-78
2023/12/28 08:53:57;;;;;;;1.73;1.73;;;;;;;7.81;100.00;101348.69;5079855;28;20199;-78
2023/12/28 08:56:23;;;;;;;1.70;1.60;;;;;;;7.80;100.00;101342.63;5083782;28;20198;-78
2023/12/28 08:58:52;;;;;;;1.70;1.60;;;;;;;7.88;100.00;101327.50;5086082;28;20202;-79
2023/12/28 09:01:21;;;;;;;1.43;1.43;;;;;;;7.92;100.00;101330.25;5051275;28;20197;-77
2023/12/28 09:03:49;;;;;;;1.10;1.10;;;;;;;7.65;100.00;101295.44;5091754;28;20240;-77
2023/12/28 09:06:16;;;;;;;0.90;0.90;;;;;;;7.96;100.00;101328.69;5094522;28;20240;-75
2023/12/28 09:08:43;;;;;;;2.42;1.98;;;;;;;8.14;100.00;101319.19;5092704;28;20202;-76
2023/12/28 09:11:12;;;;;;;1.60;1.60;;;;;;;8.13;100.00;101309.69;5093389;28;20221;-76
2023/12/28 09:13:39;;;;;;;1.20;1.20;;;;;;;8.41;100.00;101292.03;5064596;28;20230;-74
2023/12/28 09:16:06;;;;;;;1.25;1.25;;;;;;;8.66;100.00;101256.88;5093619;28;20205;-76
2023/12/28 09:18:36;;;;;;;2.25;2.15;;;;;;;8.83;100.00;101290.34;5092687;28;20228;-75
2023/12/28 09:21:03;;;;;;;6.45;2.95;;;;;;;8.85;100.00;101287.81;5082116;28;20214;-74
2023/12/28 09:23:30;;;;;;;1.30;1.30;;;;;;;8.92;100.00;101288.13;5093682;28;20270;-74
2023/12/28 09:25:57;;;;;;;6.75;3.40;;;;;;;8.96;100.00;101283.97;5089075;28;20321;-74
2023/12/28 09:28:24;;;;;;;5.22;3.83;;;;;;;9.05;100.00;101274.00;5092938;28;20197;-74
2023/12/28 09:30:51;;;;;;;1.52;1.52;;;;;;;9.67;100.00;101223.75;5093671;28;20210;-74
2023/12/28 09:33:18;;;;;;;2.88;2.78;;;;;;;9.22;100.00;101176.31;5093409;28;20198;-74
2023/12/28 09:35:47;;;;;;;1.38;1.38;;;;;;;9.44;100.00;101283.34;5093207;28;20773;-73
2023/12/28 09:38:14;;;;;;;2.50;2.40;;;;;;;9.42;100.00;101284.06;5093701;28;20202;-74
2023/12/28 09:40:42;;;;;;;1.80;1.67;;;;;;;8.81;99.08;101195.44;5086935;28;20646;-74
2023/12/28 09:43:16;;;;;;;1.80;1.75;;;;;;;9.11;100.00;101294.06;5093312;28;20202;-75
2023/12/28 09:45:43;;;;;;;1.35;1.35;;;;;;;9.00;100.00;101284.97;5093594;28;20222;-70
2023/12/28 09:48:12;;;;;;;11.48;3.45;;;;;;;9.10;100.00;101279.34;5058288;28;20626;-75
2023/12/28 09:50:39;;;;;;;1.70;1.67;;;;;;;9.19;100.00;101280.59;5079052;28;20209;-75
2023/12/28 09:53:07;;;;;;;0.90;0.88;;;;;;;9.30;99.23;101256.03;5072264;28;20215;-75
2023/12/28 09:55:34;;;;;;;1.20;1.20;;;;;;;9.26;98.46;101243.78;5082881;28;20205;-74
2023/12/28 09:58:01;;;;;;;1.00;1.00;;;;;;;9.40;98.13;101258.16;5073011;28;20265;-70
2023/12/28 10:00:28;;;;;;;2.90;2.70;;;;;;;9.26;98.10;101219.63;5087358;28;20205;-71
2023/12/28 10:02:55;;;;;;;1.90;1.90;;;;;;;9.18;99.11;101223.59;5088865;28;20602;-70
2023/12/28 10:05:22;;;;;;;1.60;1.60;;;;;;;9.55;100.00;101236.25;5084840;28;20942;-71
2023/12/28 10:07:49;;;;;;;14.68;1.98;;;;;;;9.76;100.00;101219.81;5077784;28;20206;-70
2023/12/28 10:10:19;;;;;;;14.05;6.30;;;;;;;9.87;100.00;101212.41;5092723;28;20230;-71
2023/12/28 10:12:47;;;;;;;4.00;3.55;;;;;;;10.00;98.57;101208.53;5092800;28;20210;-68
2023/12/28 10:15:14;;;;;;;3.20;2.92;;;;;;;10.02;95.22;101187.06;5089605;28;20201;-68
2023/12/28 10:17:41;;;;;;;6.28;3.83;;;;;;;10.19;93.93;101188.53;5093258;28;20198;-72
2023/12/28 10:20:09;;;;;;;2.28;2.17;;;;;;;10.30;92.98;101188.91;5083244;28;20198;-71
2023/12/28 10:22:36;;;;;;;5.68;2.97;;;;;;;10.44;100.00;101170.41;5048622;28;20294;-70
2023/12/28 10:25:04;;;;;;;2.75;2.58;;;;;;;10.52;91.58;101172.34;5090164;28;20206;-70
2023/12/28 10:27:33;;;;;;;3.42;1.52;;;;;;;10.66;91.42;101164.19;5084537;28;20229;-70
2023/12/28 10:30:00;;;;;;;4.15;2.78;;;;;;;10.83;99.73;101159.53;5086218;28;20255;-71
2023/12/28 10:32:26;;;;;;;5.30;4.03;;;;;;;11.21;100.00;101150.28;5084377;28;20205;-72
2023/12/28 10:34:54;;;;;;;3.00;2.42;;;;;;;11.21;100.00;101140.78;5083965;28;20236;-75
2023/12/28 10:37:21;;;;;;;14.13;2.13;;;;;;;11.44;95.05;101162.25;5091104;28;20233;-72
2023/12/28 10:39:50;;;;;;;5.10;3.40;;;;;;;11.56;90.21;101159.13;5088046;28;20202;-74
2023/12/28 10:42:36;;;;;;;1.60;1.60;;;;;;;11.65;85.60;101159.34;5093729;28;20236;-74
2023/12/28 10:45:06;;;;;;;2.90;2.78;;;;;;;11.51;84.56;101140.81;5091738;28;20267;-74
2023/12/28 10:47:35;;;;;;;2.15;2.05;;;;;;;11.58;85.19;101157.44;5072279;28;20218;-74
2023/12/28 10:50:04;;;;;;;2.55;2.35;;;;;;;11.51;85.17;101160.69;5081432;28;20289;-75
2023/12/28 10:52:32;;;;;;;2.40;2.20;;;;;;;11.44;89.35;101150.13;5090316;28;20195;-73
2023/12/28 10:55:15;;;;;;;2.03;1.92;;;;;;;11.63;87.33;101146.31;5091534;28;20646;-75
2023/12/28 10:57:55;;;;;;;1.52;1.42;;;;;;;11.56;85.26;101127.94;5089784;28;20265;-74
2023/12/28 11:00:35;;;;;;;2.22;2.13;;;;;;;11.44;83.87;101103.41;5082343;28;20237;-73
2023/12/28 11:03:04;;;;;;;2.33;2.15;;;;;;;11.63;83.29;101122.09;5090716;28;20198;-75
2023/12/28 11:05:33;;;;;;;2.08;1.98;;;;;;;11.73;82.83;101116.31;5090798;28;20615;-74
2023/12/28 11:08:01;;;;;;;3.53;3.25;;;;;;;11.57;81.96;101077.75;5091338;28;20213;-74
2023/12/28 11:10:29;;;;;;;2.28;1.55;;;;;;;11.84;81.28;101107.09;5091178;28;20194;-74
2023/12/28 11:12:58;;;;;;;2.22;1.60;;;;;;;11.90;80.42;101104.66;5089856;28;20225;-74
2023/12/28 11:15:27;;;;;;;0.90;0.90;;;;;;;11.72;79.00;101104.16;5091446;28;20278;-74
2023/12/28 11:17:54;;;;;;;0.70;0.70;;;;;;;11.57;79.38;101082.94;5072298;28;20658;-77
2023/12/28 11:20:21;;;;;;;2.53;1.35;;;;;;;11.57;78.45;101064.75;5082444;28;20739;-75
2023/12/28 11:22:49;;;;;;;3.42;2.20;;;;;;;11.84;78.45;101089.75;5090187;28;20206;-75
2023/12/28 11:25:18;;;;;;;2.63;2.53;;;;;;;11.79;78.92;101098.28;5087566;28;20202;-73
2023/12/28 11:27:47;;;;;;;1.40;1.30;;;;;;;11.88;78.79;101085.53;5090665;28;20244;-73